Sutton, AK (99674)

3:55 PM AKDT on September 24, 2016 (GMT -0800)
Sutton/Kings River | | Change Station

Elev 600 ft 61.74 °N, 148.77 °W | Updated 1 second ago

Overcast
Overcast
53.2 °F
Feels Like 53.2 °F
N
1.0
Wind Variable Wind from SW
Gusts 7.0 mph

Today
High -- | Low -- °F
--% Chance of Precip.
Yesterday
High -- | Low -- °F
Precip. -- in
Pressure 29.72 in
Visibility 10.0 miles
Clouds Few 4500 ft
Mostly Cloudy 7000 ft
Overcast 20000 ft
Dew Point 38 °F
Humidity 57%
Rainfall 0.00 in
Snow Depth Not available.
7:46 AM 7:46 PM
Waning Crescent, 33% visible
METAR PAAQ 242353Z 12010KT 10SM FEW045 BKN070 OVC200 11/03 A2971 RMK AO2 SLP064 T01110033 10117 20061 51001
Pressure 29.72 in
Visibility 10.0 miles
Clouds Few 4500 ft
Mostly Cloudy 7000 ft
Overcast 20000 ft
Dew Point 38 °F
Humidity 57%
Rainfall 0.00 in
Snow Depth Not available.
7:46 AM 7:46 PM
Waning Crescent, 33% visible
METAR PAAQ 242353Z 12010KT 10SM FEW045 BKN070 OVC200 11/03 A2971 RMK AO2 SLP064 T01110033 10117 20061 51001

10-Day Weather Forecast

Almanac

Astronomy

Sep. 24, 2016 Rise Set
Actual Time
Civil Twilight
Nautical Twilight
Astronomical Twilight
Moon
Length of Visible Light
Length of Day
Tomorrow will be .
, % of the Moon is Illuminated

Today's Extremes

State Highs State Lows

Community

WunderPhotos

Upload Photos

1,941,456 photos uploaded!

WunderBlog® & News

Nearby

Air Quality

  Air Quality AQ Index Pollutant
Not available.

Snow Depth

Station Depth Elevation

Earthquake Activity

City Distance Mag. Time & Date
Minimum magnitude displayed is 2.5.

Coastal Water Temperatures

Place Temperature

Stations

Nearby Weather Stations

Station Location Temp. Windchill Dew Point Humidity Wind Precip. Elev Updated Type
                   

Watches & Warnings

There are currently no watches in effect.